Time;durP1;ratioP1;P1;durP2;ratioP2;P2;SDS_P1;SDS_P2;PMS_P1;PMS_P2;Temp;Humidity;BMP_temperature;BMP_pressure;BME280_temperature;BME280_humidity;BME280_pressure;Samples;Min_cycle;Max_cycle;Signal;HPM_P1;HPM_P2
2023/10/17 00:01:18;;;;;;;6.13;4.90;;;10.00;99.90;;;;;;5000250;28;20511;-69
2023/10/17 00:03:45;;;;;;;7.20;4.73;;;9.90;99.90;;;;;;5002091;28;20439;-68
2023/10/17 00:06:13;;;;;;;5.70;5.20;;;9.90;99.90;;;;;;4999511;28;20439;-68
2023/10/17 00:08:39;;;;;;;6.70;5.20;;;9.90;99.90;;;;;;4995389;28;20522;-68
2023/10/17 00:11:17;;;;;;;5.13;4.63;;;9.90;99.90;;;;;;4998327;28;21095;-68
2023/10/17 00:13:59;;;;;;;6.40;4.47;;;9.80;99.90;;;;;;4997456;28;20539;-68
2023/10/17 00:16:26;;;;;;;5.57;5.03;;;9.80;99.90;;;;;;4996603;28;20454;-69
2023/10/17 00:18:52;;;;;;;5.87;5.20;;;9.80;99.90;;;;;;4998282;28;20613;-69
2023/10/17 00:21:25;;;;;;;6.97;5.53;;;9.80;99.90;;;;;;4992553;28;20446;-68
2023/10/17 00:23:52;;;;;;;6.40;4.30;;;9.80;99.90;;;;;;4989744;28;20447;-68
2023/10/17 00:26:18;;;;;;;6.27;4.90;;;9.70;99.90;;;;;;5013887;28;20443;-69
2023/10/17 00:28:45;;;;;;;5.57;4.67;;;9.80;99.90;;;;;;4997955;28;20805;-69
2023/10/17 00:31:12;;;;;;;6.40;5.10;;;9.70;99.90;;;;;;4994529;28;20490;-69
2023/10/17 00:33:41;;;;;;;7.03;5.47;;;9.70;99.90;;;;;;4997194;28;20452;-69
2023/10/17 00:36:11;;;;;;;6.10;4.90;;;9.70;99.90;;;;;;4993908;28;21172;-69
2023/10/17 00:38:42;;;;;;;5.93;5.33;;;9.60;99.90;;;;;;4997567;28;20464;-69
2023/10/17 00:41:08;;;;;;;5.73;5.23;;;9.60;99.90;;;;;;4999360;28;20437;-69
2023/10/17 00:43:35;;;;;;;6.40;5.13;;;9.60;99.90;;;;;;4999282;28;20455;-68
2023/10/17 00:46:01;;;;;;;6.27;5.13;;;9.60;99.90;;;;;;5000749;28;20421;-69
2023/10/17 00:48:27;;;;;;;7.40;5.03;;;9.60;99.90;;;;;;4999978;28;20505;-68
2023/10/17 00:51:07;;;;;;;6.67;4.43;;;9.50;99.90;;;;;;5002263;28;20181;-68
2023/10/17 00:53:33;;;;;;;8.37;6.47;;;9.50;99.90;;;;;;4995163;28;20452;-68
2023/10/17 00:55:59;;;;;;;6.67;5.27;;;9.50;99.90;;;;;;4999376;28;20411;-68
2023/10/17 00:58:27;;;;;;;6.80;5.07;;;9.50;99.90;;;;;;4997272;28;20189;-69
2023/10/17 01:00:59;;;;;;;8.67;5.23;;;9.50;99.90;;;;;;5017051;28;20916;-68
2023/10/17 01:03:28;;;;;;;7.10;5.70;;;9.40;99.90;;;;;;4994460;28;20459;-68
2023/10/17 01:06:10;;;;;;;6.83;5.00;;;9.40;99.90;;;;;;5007014;28;20487;-69
2023/10/17 01:08:44;;;;;;;6.13;5.30;;;9.40;99.90;;;;;;5011477;28;20444;-70
2023/10/17 01:11:27;;;;;;;5.30;4.80;;;9.40;99.90;;;;;;4997054;28;20432;-70
2023/10/17 01:13:54;;;;;;;5.93;5.23;;;9.40;99.90;;;;;;5001290;28;20498;-70
2023/10/17 01:16:20;;;;;;;6.90;4.90;;;9.40;99.90;;;;;;4998148;28;20486;-70
2023/10/17 01:18:46;;;;;;;5.87;5.13;;;9.30;99.90;;;;;;4998854;28;20487;-70
2023/10/17 01:21:19;;;;;;;6.63;5.27;;;9.30;99.90;;;;;;5009834;28;20786;-70
2023/10/17 01:23:46;;;;;;;5.87;5.27;;;9.30;99.90;;;;;;5002438;28;20464;-69
2023/10/17 01:26:20;;;;;;;5.50;4.50;;;9.30;99.90;;;;;;4994123;28;20442;-69
2023/10/17 01:28:48;;;;;;;8.40;5.03;;;9.30;99.90;;;;;;4997908;28;20423;-68
2023/10/17 01:31:14;;;;;;;6.73;5.40;;;9.20;99.90;;;;;;4999579;28;20423;-68
2023/10/17 01:33:44;;;;;;;5.57;4.70;;;9.20;99.90;;;;;;4997973;28;20491;-69
2023/10/17 01:36:10;;;;;;;5.00;4.50;;;9.20;99.90;;;;;;4992041;28;20510;-68
2023/10/17 01:38:36;;;;;;;7.10;5.40;;;9.10;99.90;;;;;;4994012;28;20497;-68
2023/10/17 01:41:02;;;;;;;7.23;4.80;;;9.10;99.90;;;;;;4998599;28;20507;-68
2023/10/17 01:43:36;;;;;;;7.40;5.07;;;9.10;99.90;;;;;;4992235;28;20480;-68
2023/10/17 01:46:01;;;;;;;5.40;4.60;;;9.10;99.90;;;;;;4999171;28;20188;-68
2023/10/17 01:48:27;;;;;;;5.27;4.60;;;9.10;99.90;;;;;;4992744;28;20432;-68
2023/10/17 01:50:53;;;;;;;7.90;4.80;;;9.10;99.90;;;;;;4997204;28;20189;-68
2023/10/17 01:53:19;;;;;;;9.10;5.30;;;9.10;99.90;;;;;;4997141;28;20204;-69
2023/10/17 01:56:02;;;;;;;6.63;4.30;;;9.10;99.90;;;;;;4999541;28;21058;-69
2023/10/17 01:58:29;;;;;;;5.53;4.80;;;9.00;99.90;;;;;;5001113;28;20459;-68
2023/10/17 02:00:57;;;;;;;5.57;4.70;;;9.00;99.90;;;;;;5000039;28;20440;-68
2023/10/17 02:03:23;;;;;;;6.43;4.83;;;9.00;99.90;;;;;;4997448;28;20471;-68
2023/10/17 02:05:48;;;;;;;4.87;4.37;;;9.00;99.90;;;;;;5000727;28;20423;-68
2023/10/17 02:08:14;;;;;;;6.07;4.40;;;9.00;99.90;;;;;;5000993;28;20448;-68
2023/10/17 02:10:40;;;;;;;5.27;4.50;;;9.00;99.90;;;;;;4994426;28;20189;-69
2023/10/17 02:13:07;;;;;;;5.40;4.90;;;9.00;99.90;;;;;;4996417;28;20519;-68
2023/10/17 02:15:34;;;;;;;5.07;4.57;;;9.00;99.90;;;;;;4994826;28;20178;-68
2023/10/17 02:18:06;;;;;;;7.00;4.87;;;9.00;99.90;;;;;;4998491;28;20474;-68
2023/10/17 02:20:34;;;;;;;6.23;5.10;;;9.00;99.90;;;;;;5001153;28;20528;-68
2023/10/17 02:23:08;;;;;;;8.67;4.83;;;9.00;99.90;;;;;;5002391;28;20447;-69
2023/10/17 02:25:35;;;;;;;5.57;5.00;;;9.00;99.90;;;;;;4997060;28;20521;-69
2023/10/17 02:28:01;;;;;;;6.03;4.90;;;9.00;99.90;;;;;;5002873;28;20424;-68
2023/10/17 02:30:27;;;;;;;4.93;4.17;;;9.00;99.90;;;;;;4998955;28;20506;-68
2023/10/17 02:32:55;;;;;;;6.20;4.47;;;9.00;99.90;;;;;;4998472;28;20456;-68
2023/10/17 02:35:36;;;;;;;4.83;4.40;;;9.00;99.90;;;;;;4996348;28;20204;-68
2023/10/17 02:38:04;;;;;;;6.00;4.70;;;9.00;99.90;;;;;;5003301;28;20456;-69
2023/10/17 02:40:34;;;;;;;6.10;4.87;;;9.00;99.90;;;;;;5002591;28;20452;-68
2023/10/17 02:43:00;;;;;;;5.43;4.70;;;9.00;99.90;;;;;;4999666;28;21027;-69
2023/10/17 02:45:26;;;;;;;5.40;4.90;;;9.00;99.90;;;;;;5001571;28;20957;-68
2023/10/17 02:47:56;;;;;;;7.20;5.10;;;9.00;99.90;;;;;;4995082;28;20478;-68
2023/10/17 02:50:47;;;;;;;6.07;4.70;;;9.00;99.90;;;;;;4998906;28;20616;-69
2023/10/17 02:53:14;;;;;;;8.40;4.57;;;9.00;99.90;;;;;;5000507;28;20447;-69
2023/10/17 02:55:39;;;;;;;5.43;4.93;;;9.00;99.90;;;;;;5000294;28;20507;-69
2023/10/17 02:58:05;;;;;;;6.27;4.97;;;9.00;99.90;;;;;;4995999;28;20555;-68
2023/10/17 03:00:34;;;;;;;6.10;4.83;;;9.00;99.90;;;;;;4996772;28;20185;-69
2023/10/17 03:03:00;;;;;;;7.07;5.00;;;9.00;99.90;;;;;;5001673;28;20201;-69
2023/10/17 03:05:27;;;;;;;6.03;4.90;;;9.00;99.90;;;;;;5001900;28;20423;-68
2023/10/17 03:07:53;;;;;;;5.70;4.97;;;9.00;99.90;;;;;;5003034;28;20493;-68
2023/10/17 03:10:37;;;;;;;5.70;4.73;;;9.10;99.90;;;;;;4997136;28;20533;-68
2023/10/17 03:13:14;;;;;;;4.60;4.20;;;9.10;99.90;;;;;;5004488;28;20455;-69
2023/10/17 03:15:46;;;;;;;6.37;5.00;;;9.10;99.90;;;;;;5000210;28;20525;-68
2023/10/17 03:18:16;;;;;;;5.17;4.67;;;9.10;99.90;;;;;;5004762;28;20470;-69
2023/10/17 03:20:50;;;;;;;6.20;5.37;;;9.10;99.90;;;;;;5007467;28;20427;-69
2023/10/17 03:23:16;;;;;;;5.47;4.97;;;9.10;99.90;;;;;;5008700;28;20983;-69
2023/10/17 03:25:46;;;;;;;11.07;4.60;;;9.10;99.90;;;;;;5006441;28;20733;-68
2023/10/17 03:28:15;;;;;;;6.73;4.30;;;9.10;99.90;;;;;;5009213;28;20423;-68
2023/10/17 03:30:42;;;;;;;5.20;4.40;;;9.10;99.90;;;;;;5008949;28;20459;-68
2023/10/17 03:33:09;;;;;;;7.70;5.30;;;9.00;99.90;;;;;;5000453;28;20454;-68
2023/10/17 03:35:37;;;;;;;5.20;4.70;;;9.00;99.90;;;;;;5004318;28;20978;-68
2023/10/17 03:38:04;;;;;;;9.53;5.27;;;9.00;99.90;;;;;;5004781;28;20459;-68
2023/10/17 03:40:35;;;;;;;5.90;4.77;;;9.00;99.90;;;;;;4998786;28;20441;-69
2023/10/17 03:43:11;;;;;;;6.30;4.80;;;9.00;99.90;;;;;;5000740;28;20513;-68
2023/10/17 03:45:43;;;;;;;5.87;5.23;;;9.00;99.90;;;;;;5000450;28;20957;-70
2023/10/17 03:48:15;;;;;;;5.50;4.87;;;9.00;99.90;;;;;;5001348;28;20543;-69
2023/10/17 03:51:24;;;;;;;8.93;4.87;;;9.00;99.90;;;;;;4994058;28;20451;-69
2023/10/17 03:53:29;;;;;;;7.93;5.37;;;9.00;99.90;;;;;;4994917;28;21064;-69
2023/10/17 03:56:00;;;;;;;6.40;4.90;;;9.00;99.90;;;;;;4987337;28;20433;-69
2023/10/17 03:58:40;;;;;;;6.83;5.20;;;9.00;99.90;;;;;;4994290;28;20264;-69
2023/10/17 04:01:10;;;;;;;7.10;4.80;;;9.00;99.90;;;;;;4997961;28;20892;-68
2023/10/17 04:03:36;;;;;;;7.30;5.50;;;9.00;99.90;;;;;;4993476;28;20942;-69
2023/10/17 04:08:46;;;;;;;5.60;5.03;;;9.00;99.90;;;;;;5002252;28;20522;-68
2023/10/17 04:11:25;;;;;;;6.53;5.77;;;9.00;99.90;;;;;;4998956;28;20578;-68
2023/10/17 04:13:53;;;;;;;5.20;4.70;;;9.00;99.90;;;;;;4996362;28;20503;-68
2023/10/17 04:16:27;;;;;;;5.20;4.70;;;9.00;99.90;;;;;;5001749;28;20436;-68
2023/10/17 04:21:45;;;;;;;7.13;5.20;;;9.00;99.90;;;;;;4996739;28;20423;-69
2023/10/17 04:24:13;;;;;;;5.90;5.07;;;9.00;99.90;;;;;;4994687;28;20440;-68
2023/10/17 04:26:45;;;;;;;7.23;4.87;;;9.00;99.90;;;;;;4997628;28;20578;-69
2023/10/17 04:29:11;;;;;;;5.90;4.60;;;8.90;99.90;;;;;;5003711;28;20435;-69
2023/10/17 04:31:43;;;;;;;6.77;5.23;;;9.00;99.90;;;;;;4998253;28;20513;-69
2023/10/17 04:34:14;;;;;;;6.93;5.30;;;9.00;99.90;;;;;;4995139;28;20845;-68
2023/10/17 04:36:40;;;;;;;7.90;5.60;;;9.00;99.90;;;;;;4997275;28;20482;-69
2023/10/17 04:44:24;;;;;;;5.63;4.97;;;8.90;99.90;;;;;;4996039;28;20475;-69
2023/10/17 04:47:16;;;;;;;11.40;5.33;;;8.90;99.90;;;;;;4999934;28;20480;-69
2023/10/17 04:49:39;;;;;;;5.97;5.37;;;8.90;99.90;;;;;;4997377;28;20448;-68
2023/10/17 04:52:08;;;;;;;6.17;5.33;;;9.00;99.90;;;;;;4996503;28;20459;-69
2023/10/17 04:57:07;;;;;;;6.77;5.27;;;9.00;99.90;;;;;;4995817;28;20424;-68
2023/10/17 06:18:49;;;;;;;6.77;6.07;;;9.20;99.90;;;;;;5006658;28;20502;-68
2023/10/17 06:21:18;;;;;;;8.60;6.87;;;9.20;99.90;;;;;;5013309;28;20430;-69
2023/10/17 06:34:20;;;;;;;11.13;6.80;;;9.30;99.90;;;;;;5003905;28;20514;-70
2023/10/17 06:36:50;;;;;;;9.63;6.00;;;9.30;99.90;;;;;;5003948;28;20524;-70
2023/10/17 06:39:17;;;;;;;7.03;6.33;;;9.40;99.90;;;;;;5001828;28;20975;-70
2023/10/17 06:41:47;;;;;;;8.50;6.40;;;9.40;99.90;;;;;;4993150;28;20444;-69
2023/10/17 06:44:21;;;;;;;7.37;6.20;;;9.40;99.90;;;;;;4996197;28;20748;-69
2023/10/17 06:46:58;;;;;;;8.90;6.50;;;9.50;99.90;;;;;;4991920;28;20985;-69
2023/10/17 06:50:04;;;;;;;8.67;6.60;;;9.50;99.90;;;;;;4997167;28;20431;-69
2023/10/17 06:54:58;;;;;;;9.20;6.50;;;9.60;99.90;;;;;;4994661;28;20508;-70
2023/10/17 06:57:33;;;;;;;9.50;6.67;;;9.60;99.90;;;;;;5001485;28;20272;-70
2023/10/17 07:02:49;;;;;;;9.00;6.17;;;9.60;99.90;;;;;;5000537;28;20468;-70
2023/10/17 07:05:21;;;;;;;9.87;7.10;;;9.70;99.90;;;;;;5000016;28;20447;-70
2023/10/17 07:07:52;;;;;;;8.77;6.27;;;9.70;99.90;;;;;;4995325;28;20953;-69
2023/10/17 07:13:39;;;;;;;12.20;7.50;;;9.80;99.90;;;;;;4995560;28;20475;-69
2023/10/17 07:16:11;;;;;;;9.80;7.13;;;9.80;99.90;;;;;;4999956;28;20425;-69
2023/10/17 07:18:44;;;;;;;7.67;6.87;;;9.90;99.90;;;;;;4994763;28;20537;-69
2023/10/17 07:23:41;;;;;;;8.83;7.00;;;10.00;99.90;;;;;;4995104;28;20513;-69
2023/10/17 07:26:14;;;;;;;10.90;8.17;;;10.00;99.90;;;;;;4992972;28;20441;-69
2023/10/17 07:28:42;;;;;;;9.87;7.53;;;10.10;99.90;;;;;;5000180;28;21235;-69
2023/10/17 07:31:11;;;;;;;11.10;8.23;;;10.20;99.90;;;;;;5005824;28;21141;-69
2023/10/17 07:33:43;;;;;;;10.93;7.87;;;10.30;99.90;;;;;;5000016;28;20458;-69
2023/10/17 07:36:18;;;;;;;8.77;7.20;;;10.30;99.90;;;;;;5000877;28;20429;-69
2023/10/17 07:38:45;;;;;;;12.37;7.73;;;10.40;99.90;;;;;;5017580;28;20463;-68
2023/10/17 07:41:13;;;;;;;15.40;10.27;;;10.50;99.90;;;;;;4999232;28;20444;-68
2023/10/17 07:43:46;;;;;;;10.97;9.20;;;10.70;99.90;;;;;;4998002;28;20444;-68
2023/10/17 07:46:25;;;;;;;11.83;8.00;;;10.70;99.90;;;;;;4998548;28;20483;-69
2023/10/17 07:48:51;;;;;;;9.30;8.07;;;10.80;99.90;;;;;;4996208;28;20420;-69
2023/10/17 07:51:17;;;;;;;9.73;8.20;;;10.80;99.90;;;;;;4995533;28;20819;-69
2023/10/17 07:53:46;;;;;;;8.80;7.87;;;10.80;99.90;;;;;;4995674;28;20202;-69
2023/10/17 07:56:20;;;;;;;9.57;7.73;;;10.90;99.90;;;;;;5000236;28;20495;-69
2023/10/17 08:01:42;;;;;;;9.43;8.40;;;11.00;99.90;;;;;;5002316;28;20447;-68
2023/10/17 08:04:17;;;;;;;;;;;;;;;;;;;;;
2023/10/17 08:06:40;;;;;;;9.47;7.60;;;11.20;99.90;;;;;;5008122;28;20482;-70
2023/10/17 08:09:17;;;;;;;10.70;7.60;;;11.30;99.90;;;;;;5014428;28;20440;-70
2023/10/17 08:11:43;;;;;;;11.67;8.77;;;11.30;99.90;;;;;;4997241;28;20429;-69
2023/10/17 08:14:11;;;;;;;8.03;7.23;;;11.40;99.90;;;;;;4989543;28;20458;-69
2023/10/17 08:16:42;;;;;;;9.87;7.03;;;11.40;99.90;;;;;;5001298;28;20847;-69
2023/10/17 08:19:22;;;;;;;9.40;6.87;;;11.50;99.90;;;;;;4998670;28;20571;-70
2023/10/17 08:29:49;;;;;;;9.63;7.97;;;11.60;99.90;;;;;;4994878;28;20918;-70
2023/10/17 08:34:56;;;;;;;7.80;6.23;;;11.70;99.90;;;;;;4994795;28;20674;-70
2023/10/17 08:37:39;;;;;;;7.30;6.37;;;11.80;99.90;;;;;;4994561;28;20440;-70
2023/10/17 08:40:29;;;;;;;10.33;7.00;;;11.80;99.90;;;;;;4998326;28;20436;-70
2023/10/17 08:42:52;;;;;;;10.47;7.77;;;11.90;99.90;;;;;;4992606;28;20487;-70
2023/10/17 08:45:19;;;;;;;9.30;6.50;;;12.00;99.90;;;;;;4997464;28;20451;-70
2023/10/17 08:47:46;;;;;;;8.23;5.90;;;12.10;99.90;;;;;;5000015;28;20462;-70
2023/10/17 08:50:15;;;;;;;7.40;6.70;;;12.10;99.90;;;;;;4996496;28;20467;-70
2023/10/17 08:52:44;;;;;;;10.23;6.90;;;12.10;99.90;;;;;;5001848;28;20531;-70
2023/10/17 08:55:15;;;;;;;7.70;6.73;;;12.20;99.90;;;;;;5000999;28;20494;-71
2023/10/17 08:57:41;;;;;;;8.63;6.63;;;12.20;99.90;;;;;;5001446;28;20436;-70
2023/10/17 09:02:40;;;;;;;8.43;7.20;;;12.40;99.90;;;;;;4992803;28;20451;-71
2023/10/17 09:05:25;;;;;;;11.33;7.50;;;12.40;99.90;;;;;;4996151;28;21055;-71
2023/10/17 09:07:55;;;;;;;9.60;7.30;;;12.50;99.90;;;;;;4991240;28;20435;-70
2023/10/17 09:10:36;;;;;;;7.77;6.90;;;12.50;99.90;;;;;;4995823;28;20441;-70
2023/10/17 09:15:48;;;;;;;9.30;7.00;;;12.60;99.90;;;;;;4996198;28;20456;-70
2023/10/17 09:18:14;;;;;;;8.47;7.23;;;12.60;99.90;;;;;;4996749;28;20836;-70
2023/10/17 09:20:40;;;;;;;8.97;7.30;;;12.60;99.90;;;;;;4995377;28;20216;-69
2023/10/17 09:23:28;;;;;;;11.30;8.90;;;12.60;99.90;;;;;;4995912;28;20543;-70
2023/10/17 09:26:07;;;;;;;11.30;8.20;;;12.70;99.90;;;;;;4994169;28;20169;-71
2023/10/17 09:28:33;;;;;;;8.93;7.73;;;12.70;99.90;;;;;;4996142;28;20999;-71
2023/10/17 09:31:06;;;;;;;15.30;12.73;;;12.80;99.90;;;;;;4996591;28;20499;-71
2023/10/17 09:33:33;;;;;;;9.30;7.60;;;12.80;99.90;;;;;;4999586;28;20566;-71
2023/10/17 09:36:02;;;;;;;8.30;6.80;;;12.90;99.90;;;;;;4995315;28;20487;-71
2023/10/17 09:38:31;;;;;;;9.37;8.33;;;12.90;99.90;;;;;;4995448;28;20491;-71
2023/10/17 09:41:03;;;;;;;9.60;7.23;;;13.00;99.90;;;;;;5002115;28;20882;-71
2023/10/17 09:43:29;;;;;;;11.37;8.00;;;13.00;99.90;;;;;;4994986;28;20461;-70
2023/10/17 09:46:02;;;;;;;8.77;7.23;;;13.10;99.90;;;;;;4995768;28;20468;-73
2023/10/17 09:48:34;;;;;;;8.20;6.80;;;13.10;99.90;;;;;;4999918;28;20428;-73
2023/10/17 09:51:02;;;;;;;9.97;7.20;;;13.20;99.90;;;;;;5000353;28;20958;-73
2023/10/17 09:53:32;;;;;;;9.60;7.10;;;13.20;99.90;;;;;;4999033;28;20460;-70
2023/10/17 09:56:10;;;;;;;9.90;7.90;;;13.30;99.90;;;;;;4995303;28;20443;-71
2023/10/17 09:58:45;;;;;;;8.27;7.30;;;13.40;99.90;;;;;;4999918;28;20471;-72
2023/10/17 10:01:25;;;;;;;9.17;7.10;;;13.40;99.90;;;;;;4998676;28;20551;-71
2023/10/17 10:04:01;;;;;;;10.83;6.40;;;13.50;99.90;;;;;;4994415;28;20451;-72
2023/10/17 10:06:31;;;;;;;9.17;7.30;;;13.60;99.90;;;;;;4998532;28;20436;-70
2023/10/17 10:09:24;;;;;;;8.73;6.90;;;13.70;99.90;;;;;;4999086;28;22570;-70
2023/10/17 10:11:49;;;;;;;8.03;6.87;;;13.80;99.90;;;;;;4998526;28;21097;-68
2023/10/17 10:14:37;;;;;;;10.20;6.17;;;13.90;99.90;;;;;;4996408;28;20800;-69
2023/10/17 10:17:03;;;;;;;11.13;8.00;;;14.00;99.90;;;;;;4996514;28;20232;-68
2023/10/17 10:19:41;;;;;;;10.87;7.40;;;14.00;99.90;;;;;;4984210;28;21895;-67
2023/10/17 10:22:10;;;;;;;10.07;7.60;;;14.10;99.90;;;;;;4995566;28;20457;-68
2023/10/17 10:24:37;;;;;;;11.33;7.93;;;14.20;99.90;;;;;;5002581;28;20550;-71
2023/10/17 10:27:15;;;;;;;9.90;7.83;;;14.20;99.90;;;;;;4999169;28;20482;-68
2023/10/17 10:29:42;;;;;;;8.63;7.17;;;14.30;99.90;;;;;;4996370;28;20929;-68
2023/10/17 10:32:30;;;;;;;8.73;6.90;;;14.40;99.90;;;;;;4995885;28;20536;-68
2023/10/17 10:34:55;;;;;;;10.03;6.70;;;14.50;99.90;;;;;;4997025;28;20443;-68
2023/10/17 10:37:22;;;;;;;12.87;8.13;;;14.60;99.90;;;;;;4997492;28;20439;-68
2023/10/17 10:40:22;;;;;;;12.23;8.50;;;14.60;99.80;;;;;;5000644;28;20241;-68
2023/10/17 10:42:52;;;;;;;8.07;7.20;;;14.70;99.70;;;;;;4995984;28;20452;-68
2023/10/17 10:45:31;;;;;;;7.90;6.63;;;14.70;99.40;;;;;;5002500;28;20429;-68
2023/10/17 10:47:58;;;;;;;14.37;8.93;;;14.70;99.40;;;;;;4991374;28;20482;-68
2023/10/17 10:50:29;;;;;;;13.40;7.77;;;14.80;99.30;;;;;;4994912;28;20512;-68
2023/10/17 10:52:56;;;;;;;12.40;7.47;;;14.70;99.10;;;;;;4998332;28;20462;-67
2023/10/17 10:55:24;;;;;;;20.40;9.97;;;14.80;99.20;;;;;;4996592;28;20922;-67
2023/10/17 10:57:51;;;;;;;11.23;7.03;;;14.80;99.00;;;;;;4998112;28;20444;-68
2023/10/17 11:00:17;;;;;;;10.40;7.90;;;14.90;98.90;;;;;;4996520;28;20431;-67
2023/10/17 11:02:43;;;;;;;15.60;8.20;;;15.00;98.90;;;;;;4999276;28;20467;-68
2023/10/17 11:05:13;;;;;;;9.43;7.43;;;15.00;98.60;;;;;;4996907;28;20945;-70
2023/10/17 11:07:39;;;;;;;9.47;6.90;;;15.00;98.30;;;;;;5002049;28;20277;-70
2023/10/17 11:10:18;;;;;;;43.30;11.90;;;15.00;98.40;;;;;;4996334;28;20499;-72
2023/10/17 11:12:53;;;;;;;14.10;8.33;;;14.90;98.50;;;;;;5000290;28;20732;-70
2023/10/17 11:15:21;;;;;;;13.53;7.10;;;14.80;98.60;;;;;;4996313;28;21043;-70
2023/10/17 11:17:47;;;;;;;9.20;6.87;;;14.80;98.70;;;;;;4998054;28;20891;-70
2023/10/17 11:20:14;;;;;;;9.03;7.20;;;14.80;98.70;;;;;;4994147;28;20432;-70
2023/10/17 11:22:41;;;;;;;13.30;7.70;;;14.70;98.70;;;;;;4994837;28;20200;-70
2023/10/17 11:25:13;;;;;;;11.17;7.00;;;14.70;98.80;;;;;;4994982;28;20523;-69
2023/10/17 11:27:53;;;;;;;13.13;7.17;;;14.80;98.90;;;;;;4999894;28;20425;-68
2023/10/17 11:30:20;;;;;;;23.17;8.67;;;14.80;98.90;;;;;;4993756;28;20424;-69
2023/10/17 11:32:47;;;;;;;25.83;8.77;;;14.90;99.10;;;;;;4998668;28;20440;-70
2023/10/17 11:35:29;;;;;;;13.43;7.77;;;15.00;99.10;;;;;;4996207;28;20428;-68
2023/10/17 11:37:56;;;;;;;22.00;8.70;;;15.10;99.10;;;;;;5000456;28;20483;-69
2023/10/17 11:40:39;;;;;;;7.77;6.70;;;15.40;99.10;;;;;;4996699;28;20432;-69
2023/10/17 11:43:28;;;;;;;12.87;8.80;;;15.60;98.70;;;;;;4995199;28;20533;-68
2023/10/17 11:45:53;;;;;;;9.37;7.93;;;16.00;98.70;;;;;;4996419;28;20440;-68
2023/10/17 11:48:27;;;;;;;8.60;6.70;;;16.30;98.50;;;;;;4994091;28;20998;-68
2023/10/17 11:51:06;;;;;;;9.03;7.00;;;16.70;97.90;;;;;;4996837;28;20577;-70
2023/10/17 11:53:32;;;;;;;9.87;7.13;;;17.00;97.00;;;;;;5009138;23;20893;-69
2023/10/17 11:55:58;;;;;;;8.50;7.33;;;17.50;96.60;;;;;;4978160;28;20456;-68
2023/10/17 11:58:25;;;;;;;9.67;7.47;;;17.90;95.90;;;;;;4980778;28;20927;-69
2023/10/17 12:00:51;;;;;;;35.80;10.17;;;17.90;95.00;;;;;;4975297;28;20186;-69
2023/10/17 12:05:53;;;;;;;11.87;8.37;;;18.30;94.50;;;;;;4371835;26;20475;-69
2023/10/17 12:08:22;;;;;;;53.13;13.20;;;18.70;93.90;;;;;;4975684;28;20733;-69
2023/10/17 12:10:51;;;;;;;10.17;8.30;;;18.80;93.20;;;;;;4976133;28;20436;-68
2023/10/17 12:13:20;;;;;;;9.87;8.80;;;18.70;92.30;;;;;;4965089;28;20458;-68
2023/10/17 12:15:46;;;;;;;16.00;8.53;;;18.70;92.00;;;;;;4959716;28;20482;-67
2023/10/17 12:18:12;;;;;;;21.13;7.87;;;18.60;91.90;;;;;;4957572;28;20512;-69
2023/10/17 12:20:41;;;;;;;21.97;9.50;;;18.40;91.50;;;;;;4958648;28;20198;-68
2023/10/17 12:23:11;;;;;;;28.00;9.57;;;18.20;91.20;;;;;;4960793;28;20457;-69
2023/10/17 12:25:37;;;;;;;10.80;8.50;;;17.90;91.40;;;;;;4962168;28;20770;-68
2023/10/17 12:28:06;;;;;;;20.93;9.37;;;17.80;91.60;;;;;;4959066;28;20912;-69
2023/10/17 12:30:35;;;;;;;14.27;8.67;;;17.70;91.80;;;;;;4962259;28;20422;-69
2023/10/17 12:33:02;;;;;;;62.07;15.30;;;17.60;92.10;;;;;;4961470;28;20452;-69
2023/10/17 12:35:30;;;;;;;24.23;10.27;;;17.60;92.40;;;;;;4959291;28;20936;-69
2023/10/17 12:38:05;;;;;;;11.80;8.20;;;17.50;92.50;;;;;;4960245;28;20563;-69
2023/10/17 12:40:31;;;;;;;9.70;7.83;;;17.40;92.30;;;;;;4958350;28;20410;-68
2023/10/17 12:42:57;;;;;;;10.93;7.80;;;17.20;92.40;;;;;;4961732;28;20957;-68
2023/10/17 12:45:24;;;;;;;16.53;10.03;;;17.00;92.50;;;;;;4959885;28;20282;-70
2023/10/17 12:47:50;;;;;;;11.03;9.93;;;16.90;92.70;;;;;;4958808;28;20270;-69
2023/10/17 12:50:18;;;;;;;11.57;8.63;;;16.80;92.90;;;;;;4957701;28;20517;-69
2023/10/17 12:52:44;;;;;;;10.43;7.87;;;16.80;93.30;;;;;;4962241;28;20202;-69
2023/10/17 12:55:11;;;;;;;11.53;8.40;;;16.80;93.40;;;;;;4962260;28;20873;-70
2023/10/17 12:57:38;;;;;;;9.07;8.03;;;16.80;93.60;;;;;;4961586;28;20441;-69
2023/10/17 13:00:14;;;;;;;16.43;12.40;;;16.90;93.60;;;;;;4961676;28;20560;-70
2023/10/17 13:02:40;;;;;;;16.23;9.33;;;16.90;93.60;;;;;;4958197;28;20621;-69
2023/10/17 13:05:10;;;;;;;15.13;11.53;;;17.10;93.60;;;;;;4960558;28;20446;-69
2023/10/17 13:07:37;;;;;;;11.90;9.17;;;17.20;93.50;;;;;;4960317;28;20509;-69
2023/10/17 13:10:03;;;;;;;11.00;9.30;;;17.40;93.30;;;;;;4959026;28;21022;-69
2023/10/17 13:12:29;;;;;;;12.47;9.50;;;17.50;93.00;;;;;;4962913;28;21006;-70
2023/10/17 13:14:55;;;;;;;14.73;9.47;;;17.50;92.80;;;;;;4960763;28;20422;-68
2023/10/17 13:17:21;;;;;;;9.57;8.67;;;17.70;92.70;;;;;;4961372;28;20550;-69
2023/10/17 13:19:49;;;;;;;10.60;7.53;;;17.80;92.50;;;;;;4962427;28;20209;-70
2023/10/17 13:22:17;;;;;;;10.10;8.80;;;18.00;92.50;;;;;;4955903;28;21082;-69
2023/10/17 13:24:48;;;;;;;9.33;7.90;;;18.00;91.70;;;;;;4964082;28;20417;-70
2023/10/17 13:27:15;;;;;;;12.20;7.93;;;18.00;91.70;;;;;;4963076;28;20444;-68
2023/10/17 13:29:44;;;;;;;19.60;7.83;;;18.00;91.60;;;;;;4962720;28;20448;-68
2023/10/17 13:32:10;;;;;;;12.37;8.00;;;18.10;91.50;;;;;;4960077;28;20905;-70
2023/10/17 13:34:38;;;;;;;9.90;7.33;;;18.10;91.50;;;;;;4965361;28;20434;-69
2023/10/17 13:37:04;;;;;;;10.40;7.40;;;18.20;91.50;;;;;;4962202;28;20195;-70
2023/10/17 13:39:33;;;;;;;10.93;7.53;;;18.30;91.30;;;;;;4963412;28;20458;-70
2023/10/17 13:42:02;;;;;;;13.40;8.73;;;18.40;91.40;;;;;;4964826;28;20208;-69
2023/10/17 13:44:28;;;;;;;16.80;9.10;;;18.70;91.30;;;;;;4959605;28;20948;-69
2023/10/17 13:46:54;;;;;;;9.20;7.10;;;19.20;91.30;;;;;;4960217;28;20524;-70
2023/10/17 13:49:20;;;;;;;8.67;7.77;;;19.70;90.80;;;;;;4963054;28;20459;-70
2023/10/17 13:51:46;;;;;;;13.70;8.13;;;20.00;90.00;;;;;;4964157;28;20183;-70
2023/10/17 13:54:16;;;;;;;10.30;7.10;;;20.20;88.40;;;;;;4963318;28;20206;-71
2023/10/17 13:56:42;;;;;;;12.53;7.80;;;20.30;87.40;;;;;;4961379;28;20192;-70
2023/10/17 13:59:13;;;;;;;9.13;7.77;;;20.30;86.80;;;;;;4963035;28;20457;-69
2023/10/17 14:01:42;;;;;;;9.63;7.60;;;20.40;86.10;;;;;;4962629;28;20418;-70
2023/10/17 14:04:11;;;;;;;9.03;8.23;;;20.40;85.30;;;;;;4959900;28;20474;-70
2023/10/17 14:06:42;;;;;;;10.00;9.00;;;20.30;84.50;;;;;;4963457;28;20422;-70
2023/10/17 14:09:14;;;;;;;9.93;7.47;;;20.30;84.10;;;;;;4963496;28;20426;-70
2023/10/17 14:11:47;;;;;;;10.77;7.23;;;20.20;84.40;;;;;;4960370;28;20469;-70
2023/10/17 14:14:15;;;;;;;10.47;8.20;;;20.10;84.60;;;;;;4961189;28;20466;-70
2023/10/17 14:16:40;;;;;;;8.60;7.30;;;20.00;84.30;;;;;;4963975;28;20413;-68
2023/10/17 14:19:15;;;;;;;8.60;7.20;;;19.90;84.00;;;;;;4968463;28;20471;-69
2023/10/17 14:21:47;;;;;;;12.23;9.07;;;19.70;84.10;;;;;;4967261;28;20186;-69
2023/10/17 14:24:29;;;;;;;9.87;8.80;;;19.50;84.50;;;;;;4965613;28;20441;-70
2023/10/17 14:26:55;;;;;;;14.77;10.23;;;19.20;84.70;;;;;;4965666;28;20480;-69
2023/10/17 14:29:21;;;;;;;11.90;9.90;;;18.90;85.10;;;;;;4966359;28;20484;-69
2023/10/17 14:31:47;;;;;;;14.57;9.00;;;18.60;85.90;;;;;;4968673;28;20897;-69
2023/10/17 14:34:12;;;;;;;9.23;8.23;;;18.50;86.50;;;;;;4970375;28;20265;-69
2023/10/17 14:36:38;;;;;;;10.50;7.50;;;18.30;87.00;;;;;;4969959;28;20255;-69
2023/10/17 14:39:09;;;;;;;8.60;7.70;;;18.10;87.60;;;;;;4970145;28;20202;-69
2023/10/17 14:41:40;;;;;;;8.23;7.20;;;17.90;88.50;;;;;;4964800;28;20262;-68
2023/10/17 14:44:06;;;;;;;10.27;8.50;;;17.70;89.00;;;;;;4970502;28;20442;-69
2023/10/17 14:46:31;;;;;;;12.23;8.20;;;17.60;89.60;;;;;;4971455;28;20684;-69
2023/10/17 14:48:57;;;;;;;8.27;7.47;;;17.50;90.10;;;;;;4971211;28;20464;-69
2023/10/17 14:51:24;;;;;;;12.57;9.20;;;17.40;90.30;;;;;;4982282;28;20198;-70
2023/10/17 14:53:50;;;;;;;21.40;10.00;;;17.30;90.50;;;;;;4969603;28;20210;-70
2023/10/17 14:56:15;;;;;;;12.00;7.93;;;17.20;90.80;;;;;;4964716;28;20436;-70
2023/10/17 14:58:52;;;;;;;8.03;7.20;;;17.10;91.00;;;;;;4966896;28;20473;-69
2023/10/17 15:01:18;;;;;;;8.30;7.30;;;17.00;91.30;;;;;;4962362;28;20278;-70
2023/10/17 15:03:48;;;;;;;12.13;10.27;;;16.80;91.70;;;;;;4967300;28;20446;-70
2023/10/17 15:06:14;;;;;;;11.73;10.13;;;16.70;91.90;;;;;;4972031;28;20433;-70
2023/10/17 15:08:40;;;;;;;10.90;8.37;;;16.60;92.00;;;;;;4971213;28;20445;-70
2023/10/17 15:11:06;;;;;;;12.47;10.37;;;16.50;92.80;;;;;;4965919;28;20819;-70
2023/10/17 15:13:35;;;;;;;9.50;8.50;;;16.40;92.50;;;;;;4965759;28;20668;-68
2023/10/17 15:16:02;;;;;;;8.87;7.90;;;16.30;92.90;;;;;;4961947;28;20935;-68
2023/10/17 15:18:29;;;;;;;8.23;7.20;;;16.10;93.00;;;;;;4963351;28;20454;-68